Time;durP1;ratioP1;P1;durP2;ratioP2;P2;SDS_P1;SDS_P2;PMS_P1;PMS_P2;Temp;Humidity;BMP_temperature;BMP_pressure;BME280_temperature;BME280_humidity;BME280_pressure;Samples;Min_cycle;Max_cycle;Signal;HPM_P1;HPM_P2
2022/06/18 00:00:21;;;;;;;2.88;1.75;;;;;;;;;;522096;28;1620;-82
2022/06/18 00:00:36;;;;;;;3.35;1.90;;;;;;;;;;523823;28;1457;-82
2022/06/18 00:00:52;;;;;;;2.70;1.85;;;;;;;;;;524757;28;1885;-82
2022/06/18 00:01:09;;;;;;;2.43;1.80;;;;;;;;;;523305;28;1726;-82
2022/06/18 00:01:33;;;;;;;2.15;1.70;;;;;;;;;;522725;28;1416;-82
2022/06/18 00:01:49;;;;;;;2.75;1.88;;;;;;;;;;523814;28;1559;-82
2022/06/18 00:02:10;;;;;;;2.90;1.90;;;;;;;;;;522218;28;1502;-82
2022/06/18 00:02:25;;;;;;;3.08;1.80;;;;;;;;;;524009;28;1575;-82
2022/06/18 00:02:42;;;;;;;2.83;1.70;;;;;;;;;;521431;28;1601;-82
2022/06/18 00:02:57;;;;;;;2.63;1.73;;;;;;;;;;522115;28;1509;-82
2022/06/18 00:03:14;;;;;;;2.50;1.80;;;;;;;;;;521504;28;1605;-82
2022/06/18 00:03:29;;;;;;;3.10;1.90;;;;;;;;;;523835;28;1391;-82
2022/06/18 00:03:45;;;;;;;4.17;1.90;;;;;;;;;;521543;28;1443;-82
2022/06/18 00:04:08;;;;;;;3.40;1.70;;;;;;;;;;523362;28;1439;-82
2022/06/18 00:04:24;;;;;;;2.45;1.67;;;;;;;;;;523419;28;1416;-82
2022/06/18 00:04:40;;;;;;;2.10;1.60;;;;;;;;;;525476;28;1664;-82
2022/06/18 00:04:55;;;;;;;2.00;1.52;;;;;;;;;;526153;28;1461;-82
2022/06/18 00:05:14;;;;;;;2.07;1.60;;;;;;;;;;523999;28;1794;-82
2022/06/18 00:05:31;;;;;;;2.28;1.80;;;;;;;;;;524481;28;1301;-82
2022/06/18 00:05:49;;;;;;;2.20;1.75;;;;;;;;;;525760;28;1651;-82
2022/06/18 00:06:04;;;;;;;2.20;1.60;;;;;;;;;;526105;28;1616;-82
2022/06/18 00:06:19;;;;;;;2.50;1.80;;;;;;;;;;524953;28;1556;-82
2022/06/18 00:06:59;;;;;;;2.73;1.93;;;;;;;;;;525759;28;1611;-82
2022/06/18 00:07:20;;;;;;;4.00;1.80;;;;;;;;;;525595;28;1425;-82
2022/06/18 00:07:43;;;;;;;2.60;1.77;;;;;;;;;;523191;28;1519;-82
2022/06/18 00:07:58;;;;;;;2.60;1.80;;;;;;;;;;521931;28;2005;-82
2022/06/18 00:08:21;;;;;;;3.10;1.80;;;;;;;;;;523312;28;1517;-82
2022/06/18 00:08:38;;;;;;;2.70;1.77;;;;;;;;;;523921;28;1606;-83
2022/06/18 00:08:54;;;;;;;3.20;1.70;;;;;;;;;;523950;28;1442;-82
2022/06/18 00:09:11;;;;;;;3.53;1.70;;;;;;;;;;524907;28;1710;-83
2022/06/18 00:09:36;;;;;;;2.55;1.73;;;;;;;;;;526061;27;1461;-82
2022/06/18 00:10:01;;;;;;;3.90;1.80;;;;;;;;;;527271;27;1692;-82
2022/06/18 00:10:24;;;;;;;2.95;1.65;;;;;;;;;;528484;27;1515;-82
2022/06/18 00:10:39;;;;;;;2.38;1.80;;;;;;;;;;528421;27;1681;-82
2022/06/18 00:13:39;;;;;;;2.00;1.80;;;;;;;;;;525678;28;1530;-82
2022/06/18 00:13:49;;;;;;;2.67;1.80;;;;;;;;;;527995;27;1673;-82
2022/06/18 00:14:05;;;;;;;3.55;1.80;;;;;;;;;;527808;27;1549;-82
2022/06/18 00:14:20;;;;;;;4.10;1.90;;;;;;;;;;528290;27;1504;-82
2022/06/18 00:14:35;;;;;;;2.90;1.80;;;;;;;;;;527922;27;1481;-82
2022/06/18 00:14:51;;;;;;;2.53;1.80;;;;;;;;;;529607;27;1468;-82
2022/06/18 00:15:14;;;;;;;2.72;1.75;;;;;;;;;;529997;27;1743;-82
2022/06/18 00:15:32;;;;;;;2.55;1.63;;;;;;;;;;530240;27;1657;-82
2022/06/18 00:15:48;;;;;;;3.20;1.70;;;;;;;;;;528756;27;1833;-82
2022/06/18 00:16:04;;;;;;;3.28;1.70;;;;;;;;;;527017;27;1549;-82
2022/06/18 00:16:21;;;;;;;2.80;1.80;;;;;;;;;;525576;28;1609;-82
2022/06/18 00:16:37;;;;;;;2.20;1.70;;;;;;;;;;525417;28;1544;-82
2022/06/18 00:16:52;;;;;;;2.88;1.70;;;;;;;;;;526186;28;1622;-82
2022/06/18 00:17:16;;;;;;;3.37;1.83;;;;;;;;;;525483;28;1519;-82
2022/06/18 00:17:32;;;;;;;2.95;1.90;;;;;;;;;;522887;28;1548;-82
2022/06/18 00:17:48;;;;;;;3.13;1.80;;;;;;;;;;523481;28;1521;-82
2022/06/18 00:18:11;;;;;;;2.75;1.90;;;;;;;;;;525481;28;1480;-82
2022/06/18 00:18:27;;;;;;;4.03;1.88;;;;;;;;;;527620;27;1468;-82
2022/06/18 00:18:43;;;;;;;4.70;1.80;;;;;;;;;;528344;27;1409;-82
2022/06/18 00:18:58;;;;;;;3.93;1.80;;;;;;;;;;525553;28;1577;-82
2022/06/18 00:19:14;;;;;;;3.70;1.80;;;;;;;;;;526385;28;1647;-82
2022/06/18 00:19:29;;;;;;;2.87;1.80;;;;;;;;;;527243;28;1386;-82
2022/06/18 00:19:46;;;;;;;2.78;1.63;;;;;;;;;;525196;28;1438;-82
2022/06/18 00:20:02;;;;;;;2.75;1.60;;;;;;;;;;527612;27;1477;-82
2022/06/18 00:20:21;;;;;;;2.33;1.63;;;;;;;;;;527498;27;1580;-82
2022/06/18 00:20:38;;;;;;;2.83;1.88;;;;;;;;;;528189;27;1648;-82
2022/06/18 00:20:54;;;;;;;2.83;1.90;;;;;;;;;;527182;27;1500;-82
2022/06/18 00:21:15;;;;;;;3.05;1.90;;;;;;;;;;528418;27;1445;-83
2022/06/18 00:21:30;;;;;;;2.70;1.80;;;;;;;;;;527810;27;1525;-83
2022/06/18 00:21:46;;;;;;;3.22;1.90;;;;;;;;;;527023;27;1597;-83
2022/06/18 00:22:02;;;;;;;3.57;2.00;;;;;;;;;;526026;28;1590;-83
2022/06/18 00:22:21;;;;;;;3.22;1.83;;;;;;;;;;523588;28;1468;-83
2022/06/18 00:22:39;;;;;;;3.35;1.60;;;;;;;;;;523516;28;1484;-83
2022/06/18 00:22:58;;;;;;;4.55;1.75;;;;;;;;;;524411;28;1493;-82
2022/06/18 00:23:15;;;;;;;3.67;1.90;;;;;;;;;;521990;28;1556;-82
2022/06/18 00:23:30;;;;;;;3.10;1.80;;;;;;;;;;519679;28;1462;-82
2022/06/18 00:23:46;;;;;;;2.60;1.88;;;;;;;;;;521962;28;1505;-82
2022/06/18 00:24:06;;;;;;;2.45;1.83;;;;;;;;;;524325;28;1448;-82
2022/06/18 00:24:22;;;;;;;2.72;1.60;;;;;;;;;;525242;28;1465;-82
2022/06/18 00:24:37;;;;;;;2.83;1.60;;;;;;;;;;524087;28;1537;-82
2022/06/18 00:24:53;;;;;;;2.90;1.83;;;;;;;;;;521815;28;1428;-82
2022/06/18 00:25:28;;;;;;;3.17;1.87;;;;;;;;;;518799;28;1729;-82
2022/06/18 00:25:50;;;;;;;3.13;1.90;;;;;;;;;;520836;28;1633;-82
2022/06/18 00:26:05;;;;;;;2.95;1.88;;;;;;;;;;523649;28;1391;-82
2022/06/18 00:26:20;;;;;;;2.73;1.83;;;;;;;;;;523665;28;1481;-82
2022/06/18 00:26:36;;;;;;;3.15;1.90;;;;;;;;;;525724;28;1559;-82
2022/06/18 00:26:51;;;;;;;2.90;1.80;;;;;;;;;;527964;28;1460;-82
2022/06/18 00:27:10;;;;;;;2.35;1.70;;;;;;;;;;527596;27;1471;-82
2022/06/18 00:27:26;;;;;;;2.80;1.80;;;;;;;;;;528193;27;1452;-82
2022/06/18 00:27:42;;;;;;;2.50;1.80;;;;;;;;;;525540;28;1453;-82
2022/06/18 00:27:57;;;;;;;2.60;1.80;;;;;;;;;;528151;28;1077;-82
2022/06/18 00:28:23;;;;;;;2.90;1.95;;;;;;;;;;526955;28;1447;-82
2022/06/18 00:28:38;;;;;;;4.40;1.80;;;;;;;;;;525098;28;1673;-82
2022/06/18 00:28:54;;;;;;;2.97;1.92;;;;;;;;;;525776;28;1410;-82
2022/06/18 00:29:12;;;;;;;2.50;2.00;;;;;;;;;;525342;28;1495;-82
2022/06/18 00:29:28;;;;;;;2.40;1.85;;;;;;;;;;525304;28;1529;-82
2022/06/18 00:29:44;;;;;;;2.33;1.70;;;;;;;;;;528127;27;1410;-82
2022/06/18 00:30:01;;;;;;;2.50;1.80;;;;;;;;;;527731;27;1645;-82
2022/06/18 00:30:21;;;;;;;2.70;1.90;;;;;;;;;;528077;27;1440;-82
2022/06/18 00:30:36;;;;;;;3.72;1.95;;;;;;;;;;527153;27;1701;-82
2022/06/18 00:30:53;;;;;;;3.30;1.80;;;;;;;;;;527332;27;1717;-82
2022/06/18 00:31:08;;;;;;;1.85;1.60;;;;;;;;;;528419;27;1600;-82
2022/06/18 00:31:24;;;;;;;2.08;1.67;;;;;;;;;;528030;27;1475;-82
2022/06/18 00:31:40;;;;;;;2.73;1.77;;;;;;;;;;525717;28;1619;-82
2022/06/18 00:31:55;;;;;;;3.42;1.90;;;;;;;;;;525845;28;1599;-82
2022/06/18 00:32:11;;;;;;;3.60;2.00;;;;;;;;;;525256;28;1469;-82
2022/06/18 00:32:26;;;;;;;3.63;2.00;;;;;;;;;;522445;28;1699;-82
2022/06/18 00:32:42;;;;;;;3.35;2.03;;;;;;;;;;523307;28;1442;-82
2022/06/18 00:32:57;;;;;;;3.20;2.00;;;;;;;;;;523236;28;1766;-82
2022/06/18 00:33:13;;;;;;;3.45;1.98;;;;;;;;;;523705;28;1910;-82
2022/06/18 00:33:29;;;;;;;2.93;1.80;;;;;;;;;;524105;28;1435;-82
2022/06/18 00:33:45;;;;;;;2.75;1.80;;;;;;;;;;523797;28;1654;-82
2022/06/18 00:34:00;;;;;;;2.85;1.95;;;;;;;;;;523671;28;1918;-82
2022/06/18 00:34:16;;;;;;;2.80;2.03;;;;;;;;;;524959;28;1470;-82
2022/06/18 00:34:31;;;;;;;2.75;2.00;;;;;;;;;;524826;28;1647;-82
2022/06/18 00:34:47;;;;;;;3.95;1.90;;;;;;;;;;526039;28;1675;-82
2022/06/18 00:35:02;;;;;;;4.00;1.90;;;;;;;;;;526553;27;1555;-82
2022/06/18 00:35:18;;;;;;;4.23;2.00;;;;;;;;;;528295;27;1730;-82
2022/06/18 00:35:34;;;;;;;4.05;2.00;;;;;;;;;;527938;27;1480;-82
2022/06/18 00:35:56;;;;;;;2.45;1.88;;;;;;;;;;528127;27;1550;-82
2022/06/18 00:36:17;;;;;;;4.35;1.80;;;;;;;;;;527727;28;1483;-82
2022/06/18 00:36:32;;;;;;;3.42;1.80;;;;;;;;;;527714;28;1559;-82
2022/06/18 00:36:48;;;;;;;3.53;1.88;;;;;;;;;;528607;27;1574;-82
2022/06/18 00:37:05;;;;;;;4.00;1.90;;;;;;;;;;528137;27;1459;-82
2022/06/18 00:37:20;;;;;;;3.38;1.83;;;;;;;;;;527998;27;1488;-82
2022/06/18 00:37:36;;;;;;;3.13;1.80;;;;;;;;;;527221;27;1464;-82
2022/06/18 00:37:58;;;;;;;2.20;1.80;;;;;;;;;;528116;27;1495;-82
2022/06/18 00:38:26;;;;;;;2.90;1.90;;;;;;;;;;528256;27;1707;-82
2022/06/18 00:38:45;;;;;;;3.55;1.92;;;;;;;;;;528541;27;1487;-82
2022/06/18 00:39:00;;;;;;;3.22;2.05;;;;;;;;;;527916;27;1468;-82
2022/06/18 00:39:17;;;;;;;3.10;2.10;;;;;;;;;;525869;28;1695;-82
2022/06/18 00:39:32;;;;;;;3.17;2.00;;;;;;;;;;525619;28;1503;-82
2022/06/18 00:39:50;;;;;;;3.40;1.90;;;;;;;;;;525887;28;1500;-82
2022/06/18 00:40:39;;;;;;;3.05;1.80;;;;;;;;;;525160;28;1476;-82
2022/06/18 00:40:55;;;;;;;2.85;1.85;;;;;;;;;;517831;28;1649;-82
2022/06/18 00:41:17;;;;;;;2.80;1.90;;;;;;;;;;518475;28;1546;-82
2022/06/18 00:41:34;;;;;;;2.28;1.80;;;;;;;;;;518847;28;1475;-83
2022/06/18 00:41:51;;;;;;;2.58;1.88;;;;;;;;;;519942;28;1457;-82
2022/06/18 00:42:13;;;;;;;3.28;1.95;;;;;;;;;;524354;28;1417;-82
2022/06/18 00:42:31;;;;;;;2.53;1.98;;;;;;;;;;522894;28;1727;-82
2022/06/18 00:42:47;;;;;;;3.22;2.00;;;;;;;;;;522993;28;1649;-82
2022/06/18 00:43:10;;;;;;;3.80;2.13;;;;;;;;;;524200;28;1481;-82
2022/06/18 00:43:47;;;;;;;2.67;1.98;;;;;;;;;;526861;27;1405;-82
2022/06/18 00:44:27;;;;;;;3.15;1.80;;;;;;;;;;525517;28;1565;-82
2022/06/18 00:44:51;;;;;;;3.47;1.90;;;;;;;;;;526037;28;1597;-82
2022/06/18 00:45:06;;;;;;;3.30;1.90;;;;;;;;;;527793;27;1487;-82
2022/06/18 00:45:26;;;;;;;2.90;1.90;;;;;;;;;;527522;28;1633;-82
2022/06/18 00:45:42;;;;;;;3.50;1.90;;;;;;;;;;527703;27;1502;-82
2022/06/18 00:46:12;;;;;;;2.97;2.08;;;;;;;;;;528569;27;1523;-82
2022/06/18 00:46:32;;;;;;;2.92;1.90;;;;;;;;;;527012;27;1614;-82
2022/06/18 00:47:06;;;;;;;2.47;1.88;;;;;;;;;;525695;28;1504;-81
2022/06/18 00:47:21;;;;;;;2.92;1.80;;;;;;;;;;523407;28;1493;-81
2022/06/18 00:47:48;;;;;;;2.63;1.90;;;;;;;;;;521793;28;1580;-82
2022/06/18 00:48:28;;;;;;;2.72;1.70;;;;;;;;;;519719;28;1479;-82
2022/06/18 00:48:51;;;;;;;2.60;2.00;;;;;;;;;;523250;28;1414;-82
2022/06/18 00:49:11;;;;;;;2.30;1.90;;;;;;;;;;524293;28;1643;-82
2022/06/18 00:50:03;;;;;;;2.30;1.90;;;;;;;;;;525482;28;1685;-82
2022/06/18 00:50:25;;;;;;;3.58;2.13;;;;;;;;;;527230;27;1528;-82
2022/06/18 00:50:49;;;;;;;3.22;1.92;;;;;;;;;;524628;28;1929;-82
2022/06/18 00:51:13;;;;;;;2.67;1.70;;;;;;;;;;523446;28;1417;-82
2022/06/18 00:51:35;;;;;;;3.33;2.00;;;;;;;;;;526096;28;1524;-81
2022/06/18 00:51:56;;;;;;;4.90;2.00;;;;;;;;;;523590;28;1453;-82
2022/06/18 00:52:38;;;;;;;4.35;1.88;;;;;;;;;;523653;28;1453;-82
2022/06/18 00:53:02;;;;;;;2.55;1.80;;;;;;;;;;526235;28;1493;-82
2022/06/18 00:53:22;;;;;;;3.50;2.00;;;;;;;;;;527236;28;1947;-81
2022/06/18 00:53:43;;;;;;;3.33;1.98;;;;;;;;;;528272;27;1822;-81
2022/06/18 00:54:19;;;;;;;2.40;1.80;;;;;;;;;;527345;27;1420;-81
2022/06/18 00:54:46;;;;;;;3.08;2.10;;;;;;;;;;527622;28;1487;-81
2022/06/18 00:55:17;;;;;;;2.33;1.90;;;;;;;;;;527191;27;1734;-82
2022/06/18 00:55:39;;;;;;;3.25;1.90;;;;;;;;;;526802;27;1531;-82
2022/06/18 00:55:57;;;;;;;3.00;1.85;;;;;;;;;;527747;27;1436;-82
2022/06/18 00:56:19;;;;;;;3.15;1.95;;;;;;;;;;529054;27;1447;-82
2022/06/18 00:56:45;;;;;;;4.90;2.28;;;;;;;;;;529551;27;1754;-82
2022/06/18 00:57:16;;;;;;;4.40;2.00;;;;;;;;;;526228;28;1668;-82
2022/06/18 00:57:38;;;;;;;2.55;1.77;;;;;;;;;;527267;27;1640;-81
2022/06/18 00:58:07;;;;;;;2.50;1.90;;;;;;;;;;528065;27;1724;-81
2022/06/18 00:58:35;;;;;;;3.25;1.90;;;;;;;;;;525111;28;1409;-81
2022/06/18 00:59:31;;;;;;;2.70;1.80;;;;;;;;;;526474;28;1488;-81
2022/06/18 01:00:11;;;;;;;3.22;1.90;;;;;;;;;;519571;28;1598;-81
2022/06/18 01:00:42;;;;;;;2.65;1.90;;;;;;;;;;520478;28;1974;-81
2022/06/18 01:00:59;;;;;;;2.50;1.90;;;;;;;;;;518904;28;1495;-81
2022/06/18 01:01:21;;;;;;;2.40;1.85;;;;;;;;;;519416;28;1510;-81
2022/06/18 01:01:42;;;;;;;2.88;1.80;;;;;;;;;;519671;28;1447;-81
2022/06/18 01:01:59;;;;;;;3.42;1.88;;;;;;;;;;516754;28;1641;-81
2022/06/18 01:02:22;;;;;;;3.50;1.90;;;;;;;;;;517186;28;1451;-82
2022/06/18 01:02:41;;;;;;;2.75;1.80;;;;;;;;;;524273;28;1592;-82
2022/06/18 01:02:57;;;;;;;2.15;1.70;;;;;;;;;;525417;28;1497;-82
2022/06/18 01:03:38;;;;;;;3.30;1.80;;;;;;;;;;524312;28;1847;-82
2022/06/18 01:03:54;;;;;;;3.33;2.10;;;;;;;;;;522541;28;1473;-82
2022/06/18 01:04:28;;;;;;;3.47;2.10;;;;;;;;;;525008;28;1713;-82
2022/06/18 01:04:44;;;;;;;4.97;2.00;;;;;;;;;;525666;28;1426;-82
2022/06/18 01:04:59;;;;;;;3.95;2.03;;;;;;;;;;528112;27;1654;-82
2022/06/18 01:05:26;;;;;;;3.28;2.10;;;;;;;;;;525143;28;2322;-82
2022/06/18 01:05:43;;;;;;;4.60;2.10;;;;;;;;;;524404;28;2511;-82
2022/06/18 01:06:03;;;;;;;3.05;2.00;;;;;;;;;;524775;28;1492;-82
2022/06/18 01:06:25;;;;;;;3.13;2.00;;;;;;;;;;523580;28;1526;-82
2022/06/18 01:06:40;;;;;;;3.55;1.95;;;;;;;;;;521361;28;1639;-82
2022/06/18 01:07:14;;;;;;;3.13;2.10;;;;;;;;;;519910;28;1641;-82
2022/06/18 01:07:36;;;;;;;2.45;1.90;;;;;;;;;;521837;28;1621;-82
2022/06/18 01:07:57;;;;;;;3.35;1.88;;;;;;;;;;523674;28;1660;-82
2022/06/18 01:08:19;;;;;;;3.47;1.85;;;;;;;;;;523177;28;1521;-82
2022/06/18 01:08:35;;;;;;;3.53;2.00;;;;;;;;;;524942;28;1734;-82
2022/06/18 01:09:15;;;;;;;3.30;1.93;;;;;;;;;;528655;27;1417;-82
2022/06/18 01:09:35;;;;;;;3.00;1.90;;;;;;;;;;527555;28;1506;-82
2022/06/18 01:09:51;;;;;;;2.45;1.85;;;;;;;;;;525703;28;1550;-82
2022/06/18 01:10:15;;;;;;;4.97;2.10;;;;;;;;;;526677;28;1734;-82
2022/06/18 01:10:41;;;;;;;4.60;2.10;;;;;;;;;;526157;28;1552;-82
2022/06/18 01:11:00;;;;;;;2.47;1.80;;;;;;;;;;526576;28;1600;-82
2022/06/18 01:11:20;;;;;;;2.50;1.90;;;;;;;;;;526226;28;1414;-82
2022/06/18 01:11:38;;;;;;;3.03;2.00;;;;;;;;;;523402;28;1462;-82
2022/06/18 01:11:56;;;;;;;3.28;2.00;;;;;;;;;;526245;28;1723;-82
2022/06/18 01:12:11;;;;;;;3.60;1.95;;;;;;;;;;525951;28;1437;-82
2022/06/18 01:12:27;;;;;;;3.83;2.00;;;;;;;;;;524130;28;1612;-81
2022/06/18 01:12:42;;;;;;;2.75;1.85;;;;;;;;;;524509;28;1639;-81
2022/06/18 01:13:01;;;;;;;2.78;1.92;;;;;;;;;;523579;28;1618;-82
2022/06/18 01:13:20;;;;;;;2.88;2.20;;;;;;;;;;523983;28;1934;-82
2022/06/18 01:13:38;;;;;;;2.85;1.92;;;;;;;;;;525448;28;1622;-82
2022/06/18 01:13:54;;;;;;;3.08;1.85;;;;;;;;;;526380;28;1683;-82
2022/06/18 01:14:12;;;;;;;3.08;2.00;;;;;;;;;;528244;28;1009;-82
2022/06/18 01:14:30;;;;;;;2.35;2.05;;;;;;;;;;523384;28;1645;-82
2022/06/18 01:14:51;;;;;;;2.50;1.90;;;;;;;;;;523884;28;1572;-82
2022/06/18 01:15:10;;;;;;;3.13;1.98;;;;;;;;;;525483;28;1689;-82
2022/06/18 01:15:26;;;;;;;3.00;1.98;;;;;;;;;;522848;28;1525;-81
2022/06/18 01:15:46;;;;;;;2.10;1.90;;;;;;;;;;524772;28;1521;-81
2022/06/18 01:16:03;;;;;;;2.17;1.88;;;;;;;;;;523651;28;1691;-82
2022/06/18 01:16:20;;;;;;;2.67;1.92;;;;;;;;;;522050;28;1485;-82
2022/06/18 01:16:36;;;;;;;2.83;1.90;;;;;;;;;;523215;28;1591;-82
2022/06/18 01:16:56;;;;;;;2.58;1.90;;;;;;;;;;523641;28;1580;-82
2022/06/18 01:17:11;;;;;;;2.47;1.80;;;;;;;;;;521054;28;1487;-82
2022/06/18 01:17:30;;;;;;;2.53;1.88;;;;;;;;;;523821;28;1471;-82
2022/06/18 01:17:47;;;;;;;3.17;1.95;;;;;;;;;;521454;28;1435;-82
2022/06/18 01:18:04;;;;;;;3.10;2.00;;;;;;;;;;523826;28;1462;-82
2022/06/18 01:18:20;;;;;;;2.85;2.00;;;;;;;;;;526487;28;1452;-82
2022/06/18 01:18:38;;;;;;;3.13;2.00;;;;;;;;;;523588;28;1551;-82
2022/06/18 01:18:53;;;;;;;3.38;2.17;;;;;;;;;;524096;28;1449;-82
2022/06/18 01:19:29;;;;;;;3.53;2.10;;;;;;;;;;524125;28;1544;-82
2022/06/18 01:19:47;;;;;;;2.35;1.80;;;;;;;;;;527660;27;1642;-82
2022/06/18 01:20:07;;;;;;;2.60;1.90;;;;;;;;;;527325;27;1511;-82
2022/06/18 01:20:25;;;;;;;2.80;2.00;;;;;;;;;;525945;28;1644;-82
2022/06/18 01:21:00;;;;;;;2.53;1.95;;;;;;;;;;526923;27;1721;-82
2022/06/18 01:21:34;;;;;;;4.10;2.15;;;;;;;;;;527460;27;1492;-82
2022/06/18 01:22:25;;;;;;;2.75;1.80;;;;;;;;;;528234;28;1677;-82
2022/06/18 01:22:52;;;;;;;2.78;1.98;;;;;;;;;;529070;27;1530;-82
2022/06/18 01:23:13;;;;;;;4.03;1.80;;;;;;;;;;530449;27;1496;-82
2022/06/18 01:23:43;;;;;;;3.05;1.83;;;;;;;;;;527199;27;1547;-82
2022/06/18 01:24:14;;;;;;;2.70;1.90;;;;;;;;;;528433;27;1380;-82
2022/06/18 01:24:38;;;;;;;3.70;1.85;;;;;;;;;;527782;28;1484;-82
2022/06/18 01:24:55;;;;;;;2.45;1.90;;;;;;;;;;526674;28;1378;-82
2022/06/18 01:25:11;;;;;;;3.15;1.80;;;;;;;;;;525620;28;1441;-81
2022/06/18 01:25:28;;;;;;;3.72;1.90;;;;;;;;;;527102;27;1559;-81
2022/06/18 01:25:44;;;;;;;3.67;2.00;;;;;;;;;;525633;28;1563;-81
2022/06/18 01:25:59;;;;;;;2.97;2.00;;;;;;;;;;523304;28;1737;-81
2022/06/18 01:26:15;;;;;;;3.42;2.05;;;;;;;;;;524242;28;2028;-82
2022/06/18 01:26:31;;;;;;;3.50;2.05;;;;;;;;;;523538;28;1612;-82
2022/06/18 01:26:50;;;;;;;2.77;1.90;;;;;;;;;;524584;28;1519;-82
2022/06/18 01:27:08;;;;;;;2.70;1.80;;;;;;;;;;525831;28;1693;-82
2022/06/18 01:27:24;;;;;;;4.97;1.90;;;;;;;;;;523135;28;1506;-82
2022/06/18 01:27:40;;;;;;;4.85;1.83;;;;;;;;;;524434;28;1532;-82
2022/06/18 01:27:56;;;;;;;2.42;1.90;;;;;;;;;;523484;28;1582;-82
2022/06/18 01:28:16;;;;;;;2.47;2.00;;;;;;;;;;521349;28;1514;-82
2022/06/18 01:28:32;;;;;;;2.88;2.00;;;;;;;;;;521841;28;1636;-82
2022/06/18 01:28:47;;;;;;;3.20;1.90;;;;;;;;;;524025;28;1410;-83
2022/06/18 01:29:03;;;;;;;2.83;1.90;;;;;;;;;;523383;28;1675;-82
2022/06/18 01:29:19;;;;;;;2.67;1.83;;;;;;;;;;522590;28;1544;-82
2022/06/18 01:29:35;;;;;;;2.50;1.90;;;;;;;;;;521312;28;1493;-82
2022/06/18 01:29:51;;;;;;;2.90;2.00;;;;;;;;;;521798;28;1561;-82
2022/06/18 01:30:14;;;;;;;3.40;2.00;;;;;;;;;;523114;28;1628;-82
2022/06/18 01:30:35;;;;;;;3.67;1.92;;;;;;;;;;525220;28;1608;-82
2022/06/18 01:30:51;;;;;;;2.92;1.90;;;;;;;;;;523904;28;1513;-82
2022/06/18 01:31:07;;;;;;;2.53;1.80;;;;;;;;;;523152;28;1524;-82
2022/06/18 01:31:22;;;;;;;2.60;1.80;;;;;;;;;;526474;28;1515;-82
2022/06/18 01:31:38;;;;;;;3.03;2.00;;;;;;;;;;527445;28;1527;-82
2022/06/18 01:31:55;;;;;;;3.63;2.00;;;;;;;;;;526786;28;1428;-82
2022/06/18 01:32:13;;;;;;;3.83;2.08;;;;;;;;;;526759;28;1485;-82
2022/06/18 01:32:29;;;;;;;3.45;1.90;;;;;;;;;;523414;28;1572;-82
2022/06/18 01:32:46;;;;;;;2.73;1.60;;;;;;;;;;523346;28;1613;-82
2022/06/18 01:33:03;;;;;;;2.33;1.70;;;;;;;;;;520889;28;1462;-82
2022/06/18 01:33:18;;;;;;;2.60;1.80;;;;;;;;;;519214;28;1973;-82
2022/06/18 01:33:36;;;;;;;2.70;1.90;;;;;;;;;;517260;28;1500;-82
2022/06/18 01:33:51;;;;;;;2.28;1.80;;;;;;;;;;519245;28;1443;-82
2022/06/18 01:34:09;;;;;;;2.70;1.77;;;;;;;;;;521429;28;1598;-82
2022/06/18 01:34:24;;;;;;;3.47;1.90;;;;;;;;;;522035;28;1445;-82
2022/06/18 01:34:40;;;;;;;2.93;1.90;;;;;;;;;;523444;28;1470;-82
2022/06/18 01:34:55;;;;;;;2.67;1.75;;;;;;;;;;521302;28;1451;-82
2022/06/18 01:35:12;;;;;;;2.70;1.60;;;;;;;;;;521208;28;1843;-82
2022/06/18 01:35:29;;;;;;;2.50;1.70;;;;;;;;;;520416;28;1419;-81
2022/06/18 01:35:49;;;;;;;2.22;1.63;;;;;;;;;;518962;28;1543;-81
2022/06/18 01:36:10;;;;;;;3.13;1.73;;;;;;;;;;516756;28;1498;-82
2022/06/18 01:36:29;;;;;;;2.97;1.90;;;;;;;;;;519144;28;1633;-82
2022/06/18 01:36:46;;;;;;;3.20;1.98;;;;;;;;;;520188;28;1475;-82
2022/06/18 01:37:03;;;;;;;3.45;1.90;;;;;;;;;;522055;28;1664;-82
2022/06/18 01:37:19;;;;;;;3.92;2.00;;;;;;;;;;518934;28;1490;-82
2022/06/18 01:37:35;;;;;;;2.58;1.92;;;;;;;;;;520273;28;1499;-82
2022/06/18 01:37:50;;;;;;;2.83;1.70;;;;;;;;;;519775;28;1442;-82
2022/06/18 01:38:06;;;;;;;3.70;1.80;;;;;;;;;;519276;28;1463;-82
2022/06/18 01:38:24;;;;;;;3.03;1.85;;;;;;;;;;521102;28;1581;-82
2022/06/18 01:38:44;;;;;;;2.83;1.90;;;;;;;;;;522692;28;1470;-82
2022/06/18 01:38:59;;;;;;;2.20;1.70;;;;;;;;;;523838;28;1660;-82
2022/06/18 01:39:19;;;;;;;3.00;1.80;;;;;;;;;;521963;28;1496;-82
2022/06/18 01:39:41;;;;;;;3.13;2.00;;;;;;;;;;519512;28;1434;-82
2022/06/18 01:39:57;;;;;;;3.28;1.98;;;;;;;;;;521254;28;1399;-82
2022/06/18 01:40:18;;;;;;;3.70;1.92;;;;;;;;;;521840;28;1528;-82
2022/06/18 01:41:49;;;;;;;3.00;1.80;;;;;;;;;;522401;28;1458;-82
2022/06/18 01:41:51;;;;;;;3.08;1.90;;;;;;;;;;527240;28;1545;-82
2022/06/18 01:42:32;;;;;;;3.13;1.75;;;;;;;;;;525939;28;1448;-82
2022/06/18 01:42:49;;;;;;;2.92;1.70;;;;;;;;;;522934;27;1573;-82
2022/06/18 01:43:06;;;;;;;4.00;1.70;;;;;;;;;;525217;28;1677;-82
2022/06/18 01:43:24;;;;;;;4.45;1.80;;;;;;;;;;524010;28;1505;-82
2022/06/18 01:43:39;;;;;;;3.50;1.80;;;;;;;;;;523842;28;1466;-82
2022/06/18 01:43:57;;;;;;;2.85;1.80;;;;;;;;;;521511;28;1422;-82
2022/06/18 01:44:40;;;;;;;4.07;1.80;;;;;;;;;;521737;28;1418;-83
2022/06/18 01:45:03;;;;;;;1.80;1.63;;;;;;;;;;522044;28;1555;-82
2022/06/18 01:45:26;;;;;;;2.05;1.60;;;;;;;;;;523182;28;1601;-82
2022/06/18 01:45:44;;;;;;;2.65;1.70;;;;;;;;;;523443;28;1506;-82
2022/06/18 01:46:01;;;;;;;3.53;1.73;;;;;;;;;;524372;28;1804;-82
2022/06/18 01:46:17;;;;;;;4.18;1.90;;;;;;;;;;522851;28;1457;-82
2022/06/18 01:46:34;;;;;;;3.08;1.90;;;;;;;;;;523462;28;2124;-81
2022/06/18 01:46:53;;;;;;;2.80;1.90;;;;;;;;;;521925;28;1649;-82
2022/06/18 01:47:17;;;;;;;3.63;1.80;;;;;;;;;;523925;28;2031;-82
2022/06/18 01:47:39;;;;;;;2.70;1.80;;;;;;;;;;525366;28;1480;-83
2022/06/18 01:48:05;;;;;;;2.55;1.85;;;;;;;;;;525416;28;1549;-82
2022/06/18 01:48:35;;;;;;;3.00;1.70;;;;;;;;;;527431;28;1495;-82
2022/06/18 01:48:51;;;;;;;2.58;1.70;;;;;;;;;;527956;27;1476;-82
2022/06/18 01:49:11;;;;;;;2.53;1.60;;;;;;;;;;528182;28;1504;-82
2022/06/18 01:49:33;;;;;;;3.42;1.90;;;;;;;;;;528080;27;1551;-82
2022/06/18 01:50:08;;;;;;;3.35;1.80;;;;;;;;;;527206;27;1503;-83
2022/06/18 01:50:32;;;;;;;2.33;1.90;;;;;;;;;;525757;28;1720;-83
2022/06/18 01:50:52;;;;;;;2.25;1.88;;;;;;;;;;525648;28;1500;-82
2022/06/18 01:51:09;;;;;;;2.40;1.73;;;;;;;;;;523339;28;1498;-82
2022/06/18 01:51:39;;;;;;;2.80;1.70;;;;;;;;;;525573;28;1922;-82
2022/06/18 01:51:57;;;;;;;3.05;1.85;;;;;;;;;;525516;28;1652;-82
2022/06/18 01:52:15;;;;;;;2.88;1.88;;;;;;;;;;525801;28;1587;-82
2022/06/18 01:52:36;;;;;;;2.95;1.77;;;;;;;;;;527613;27;1542;-82
2022/06/18 01:53:00;;;;;;;2.83;1.80;;;;;;;;;;525285;28;2005;-82
2022/06/18 01:53:21;;;;;;;3.15;1.88;;;;;;;;;;527953;27;1914;-82
2022/06/18 01:53:47;;;;;;;2.40;1.85;;;;;;;;;;525842;28;1425;-82
2022/06/18 01:54:10;;;;;;;2.42;1.60;;;;;;;;;;526168;28;1460;-82
2022/06/18 01:54:32;;;;;;;2.03;1.75;;;;;;;;;;525780;28;1389;-82
2022/06/18 01:54:52;;;;;;;2.03;1.70;;;;;;;;;;525268;28;1579;-82
2022/06/18 01:55:17;;;;;;;2.40;1.83;;;;;;;;;;523981;28;1935;-82
2022/06/18 01:55:38;;;;;;;4.30;1.80;;;;;;;;;;523877;28;1461;-82
2022/06/18 01:56:01;;;;;;;2.60;1.80;;;;;;;;;;524378;28;1449;-82
2022/06/18 01:56:21;;;;;;;2.83;1.80;;;;;;;;;;521075;28;1476;-82
2022/06/18 01:56:42;;;;;;;2.55;1.70;;;;;;;;;;521358;28;1475;-82
2022/06/18 01:57:01;;;;;;;3.17;1.70;;;;;;;;;;524045;28;1807;-81
2022/06/18 01:57:23;;;;;;;3.28;1.60;;;;;;;;;;523007;28;1446;-81
2022/06/18 01:57:44;;;;;;;3.80;1.77;;;;;;;;;;523899;28;1609;-81
2022/06/18 01:58:12;;;;;;;2.88;1.60;;;;;;;;;;526160;28;1527;-82
2022/06/18 01:58:38;;;;;;;3.28;1.77;;;;;;;;;;525609;28;1715;-82
2022/06/18 01:59:05;;;;;;;2.55;1.80;;;;;;;;;;523346;28;1579;-82
2022/06/18 01:59:37;;;;;;;2.70;1.88;;;;;;;;;;523698;28;1490;-82
2022/06/18 01:59:58;;;;;;;3.20;1.75;;;;;;;;;;523353;28;1496;-82
2022/06/18 02:00:20;;;;;;;4.25;1.73;;;;;;;;;;523951;28;1475;-82
2022/06/18 02:00:36;;;;;;;2.42;1.58;;;;;;;;;;525052;28;1492;-82
2022/06/18 02:00:55;;;;;;;1.85;1.58;;;;;;;;;;525799;28;1524;-82
2022/06/18 02:01:26;;;;;;;2.95;1.92;;;;;;;;;;524165;28;1362;-82
2022/06/18 02:01:45;;;;;;;3.15;1.95;;;;;;;;;;525780;28;1424;-82
2022/06/18 02:02:03;;;;;;;2.38;1.80;;;;;;;;;;523775;28;1487;-82
2022/06/18 02:02:18;;;;;;;2.08;1.60;;;;;;;;;;523319;28;1711;-82
2022/06/18 02:02:33;;;;;;;2.28;1.60;;;;;;;;;;522563;28;1800;-83
2022/06/18 02:02:50;;;;;;;3.10;1.70;;;;;;;;;;523771;28;1461;-83
2022/06/18 02:03:06;;;;;;;4.00;1.83;;;;;;;;;;525540;28;1462;-82
2022/06/18 02:03:22;;;;;;;3.30;1.80;;;;;;;;;;525726;28;1402;-82
2022/06/18 02:03:37;;;;;;;2.60;1.80;;;;;;;;;;525267;28;1499;-82
2022/06/18 02:03:55;;;;;;;2.85;1.70;;;;;;;;;;524024;28;1433;-82
2022/06/18 02:04:12;;;;;;;3.13;1.60;;;;;;;;;;526131;28;1708;-82
2022/06/18 02:04:28;;;;;;;2.85;1.52;;;;;;;;;;525753;28;1582;-82
2022/06/18 02:04:44;;;;;;;2.17;1.60;;;;;;;;;;526055;28;1439;-82
2022/06/18 02:04:59;;;;;;;3.22;1.77;;;;;;;;;;523220;28;1812;-82
2022/06/18 02:05:15;;;;;;;3.83;1.70;;;;;;;;;;522159;28;1636;-82
2022/06/18 02:05:32;;;;;;;3.47;1.70;;;;;;;;;;521674;28;1531;-82
2022/06/18 02:05:47;;;;;;;3.35;1.67;;;;;;;;;;522047;28;1553;-82
2022/06/18 02:06:05;;;;;;;3.17;1.80;;;;;;;;;;524356;28;1400;-82
2022/06/18 02:06:21;;;;;;;3.13;1.80;;;;;;;;;;523174;28;1489;-82
2022/06/18 02:06:38;;;;;;;2.45;1.65;;;;;;;;;;524985;28;1541;-82
2022/06/18 02:06:54;;;;;;;2.92;1.80;;;;;;;;;;524074;28;1442;-82
2022/06/18 02:07:10;;;;;;;3.50;1.90;;;;;;;;;;523503;28;1437;-82